This is the latest recevied weather packets stored in our database for station/object kj4yre. If no packets are shown the sender has not sent any weather packets the latest 10 day(s).
| Time | Temp. | Humidity | Pressure | Rain* | Wind** | Luminosity | Snow |
|---|---|---|---|---|---|---|---|
| 1777599437 | 16.11° C | 61% | 1012.7 hPa | 0 mm | - | - | - |
| 1777599136 | 16.11° C | 66% | 1012.7 hPa | 0 mm | - | - | - |
| 1777598536 | 16.11° C | 71% | 1012.7 hPa | 0 mm | - | - | - |
| 1777598237 | 16.11° C | 75% | 1012.7 hPa | 0 mm | - | - | - |
| 1777597938 | 16.11° C | 79% | 1012.9 hPa | 0 mm | - | - | - |
| 1777596437 | 16.11° C | 81% | 1011.9 hPa | 0 mm | - | - | - |
| 1777593135 | 16.67° C | 77% | 1010.6 hPa | 0 mm | - | - | - |
| 1777591937 | 17.78° C | 71% | 1009.9 hPa | 0 mm | - | - | - |
| 1777590436 | 19.44° C | 63% | 1009.3 hPa | 0 mm | - | - | - |
| 1777588337 | 22.22° C | 55% | 1009.1 hPa | 0 mm | - | - | - |
| 1777585337 | 23.89° C | 48% | 1009 hPa | 0 mm | - | - | - |
| 1777585036 | 23.33° C | 51% | 1008.9 hPa | 0 mm | - | - | - |
| 1777584136 | 22.22° C | 54% | 1008.9 hPa | 0 mm | - | - | - |
| 1777581136 | 23.89° C | 45% | 1008.7 hPa | 0 mm | - | - | - |
| 1777579637 | 23.89° C | 50% | 1008.7 hPa | 0 mm | - | - | - |
| 1777579336 | 23.33° C | 49% | 1008.7 hPa | 0 mm | - | - | - |
| 1777579035 | 23.33° C | 46% | 1008.7 hPa | 0 mm | - | - | - |
| 1777578736 | 23.89° C | 48% | 1008.6 hPa | 0 mm | - | - | - |
| 1777577235 | 22.78° C | 50% | 1008.7 hPa | 0 mm | - | - | - |
| 1777576336 | 22.78° C | 52% | 1008.8 hPa | 0 mm | - | - | - |
| 1777574535 | 22.78° C | 53% | 1009.1 hPa | 0 mm | - | - | - |
| 1777573938 | 22.78° C | 54% | 1009.2 hPa | 0 mm | - | - | - |
| 1777572436 | 22.22° C | 56% | 1009.6 hPa | 0 mm | - | - | - |
| 1777568535 | 21.11° C | 61% | 1009.9 hPa | 0 mm | - | - | - |
| 1777566436 | 19.44° C | 70% | 1010.3 hPa | 0 mm | - | - | - |
* Rain latest hour (hover to see other rain measurements)
** Current wind speed in m/s (hover to see current wind gust speed)